createdAt,value
2023-02-22T00:04:14.975Z,7.9
2023-02-22T00:14:15.655Z,7.8
2023-02-22T00:34:17.038Z,7.8
2023-02-22T01:04:18.924Z,7.7
2023-02-22T01:14:19.119Z,7.6
2023-02-22T01:24:19.926Z,7.4
2023-02-22T01:34:20.643Z,7.2
2023-02-22T01:44:21.183Z,7
2023-02-22T01:54:21.674Z,6.8
2023-02-22T02:04:21.881Z,6.5
2023-02-22T02:14:22.474Z,6.1
2023-02-22T02:24:23.186Z,5.8
2023-02-22T02:34:23.639Z,5.8
2023-02-22T02:44:24.069Z,5.7
2023-02-22T03:14:25.665Z,6
2023-02-22T03:24:26.305Z,5.9
2023-02-22T03:44:27.447Z,5.8
2023-02-22T03:54:27.702Z,5.7
2023-02-22T04:04:28.611Z,5.7
2023-02-22T04:14:29.677Z,5.8
2023-02-22T04:24:30.578Z,5.7
2023-02-22T04:34:29.555Z,5.7
2023-02-22T04:44:29.813Z,5.6
2023-02-22T04:54:30.096Z,5.4
2023-02-22T05:04:30.718Z,5.3
2023-02-22T05:14:31.345Z,5.3
2023-02-22T05:24:32.133Z,5.2
2023-02-22T05:34:32.501Z,5.1
2023-02-22T05:44:33.552Z,5.1
2023-02-22T06:04:34.880Z,5.1
2023-02-22T06:14:35.179Z,5.2
2023-02-22T06:24:35.925Z,5.3
2023-02-22T06:34:36.476Z,5.3
2023-02-22T06:44:36.873Z,5.3
2023-02-22T06:54:37.660Z,5.3
2023-02-22T07:04:38.513Z,5.3
2023-02-22T07:14:39.185Z,5.3
2023-02-22T07:24:39.555Z,5.3
2023-02-22T07:44:40.990Z,5.1
2023-02-22T07:54:41.807Z,5
2023-02-22T08:04:42.122Z,5.1
2023-02-22T08:24:44.005Z,5.2
2023-02-22T08:34:44.303Z,5.3
2023-02-22T08:44:45.322Z,5.3
2023-02-22T08:54:46.394Z,5.2
2023-02-22T09:04:47.088Z,5
2023-02-22T09:24:47.873Z,5.3
2023-02-22T09:34:48.867Z,5.4
2023-02-22T09:44:49.113Z,5.4
2023-02-22T09:54:49.286Z,5.6
2023-02-22T10:04:50.042Z,5.8
2023-02-22T10:14:50.310Z,6
2023-02-22T10:24:50.851Z,6.1
2023-02-22T10:44:51.981Z,6.5
2023-02-22T10:54:52.449Z,6.9
2023-02-22T11:04:53.231Z,7.4
2023-02-22T11:14:54.126Z,7.7
2023-02-22T11:35:08.245Z,8.7
2023-02-22T11:44:56.266Z,9
2023-02-22T11:54:57.193Z,9.5
2023-02-22T12:04:58.396Z,10.2
2023-02-22T12:14:58.982Z,10.3
2023-02-22T12:25:08.911Z,11
2023-02-22T12:35:00.482Z,11.3
2023-02-22T12:45:01.580Z,11.9
2023-02-22T12:55:01.800Z,12.1
2023-02-22T13:05:02.895Z,12.4
2023-02-22T13:15:03.242Z,12.8
2023-02-22T13:25:03.489Z,13.5
2023-02-22T13:45:04.925Z,13.9
2023-02-22T13:55:05.764Z,14.1
2023-02-22T14:05:06.439Z,14.2
2023-02-22T14:15:08.789Z,14.1
2023-02-22T14:25:07.739Z,14
2023-02-22T14:35:11.654Z,13.9
2023-02-22T14:45:07.620Z,13.9
2023-02-22T14:55:07.791Z,13.9
2023-02-22T15:05:08.896Z,14
2023-02-22T15:15:09.241Z,14
2023-02-22T15:25:10.024Z,14.1
2023-02-22T15:35:10.331Z,14.1
2023-02-22T15:45:10.735Z,14.2
2023-02-22T15:55:10.837Z,14.2
2023-02-22T16:15:12.328Z,14.2
2023-02-22T16:25:12.806Z,14.1
2023-02-22T16:35:13.069Z,13.8
2023-02-22T16:45:13.471Z,13.6
2023-02-22T16:55:13.986Z,13.4
2023-02-22T17:05:14.812Z,13.3
2023-02-22T17:15:15.101Z,13
2023-02-22T17:25:15.244Z,12.9
2023-02-22T17:35:15.952Z,12.8
2023-02-22T17:45:17.019Z,12.6
2023-02-22T17:55:17.696Z,12.6
2023-02-22T18:05:18.477Z,12.4
2023-02-22T18:15:18.777Z,12.3
2023-02-22T18:25:19.887Z,12.1
2023-02-22T18:35:20.188Z,12.1
2023-02-22T18:45:20.945Z,12
2023-02-22T18:55:21.382Z,11.9
2023-02-22T19:05:21.569Z,11.7
2023-02-22T19:15:21.738Z,11.4
2023-02-22T19:25:22.519Z,11.2
2023-02-22T19:35:23.150Z,11
2023-02-22T19:45:24.093Z,10.8
2023-02-22T19:55:24.291Z,10.6
2023-02-22T20:05:25.363Z,10.5
2023-02-22T20:15:25.822Z,10.4
2023-02-22T20:25:26.627Z,10.3
2023-02-22T20:35:26.770Z,10.2
2023-02-22T20:45:27.802Z,10
2023-02-22T20:55:28.730Z,9.9
2023-02-22T21:05:29.438Z,9.8
2023-02-22T21:15:29.815Z,9.8
2023-02-22T21:25:30.947Z,9.7
2023-02-22T21:35:31.965Z,9.7
2023-02-22T21:45:32.449Z,9.7
2023-02-22T21:55:33.388Z,9.6
2023-02-22T22:05:34.512Z,9.5
2023-02-22T22:15:35.139Z,9.5
2023-02-22T22:25:35.480Z,9.4
2023-02-22T22:35:35.864Z,9.4
2023-02-22T22:45:36.462Z,9.4
2023-02-22T22:55:37.322Z,9.4
2023-02-22T23:05:38.033Z,9.4
2023-02-22T23:15:38.925Z,9.4
2023-02-22T23:25:39.945Z,9.3
2023-02-22T23:35:40.209Z,9.3
2023-02-22T23:45:40.982Z,9.3
2023-02-22T23:55:41.263Z,9.2
